createdAt,value
2023-03-26T00:06:58.066Z,4.87
2023-03-26T00:17:00.548Z,4.82
2023-03-26T00:27:03.160Z,4.93
2023-03-26T00:37:05.729Z,4.69
2023-03-26T00:47:08.394Z,4.67
2023-03-26T00:57:12.351Z,4.44
2023-03-26T01:07:21.883Z,4.36
2023-03-26T01:17:34.234Z,4.22
2023-03-26T01:27:50.079Z,4.01
2023-03-26T01:38:10.905Z,4.47
2023-03-26T01:48:15.148Z,4.51
2023-03-26T01:58:46.703Z,4.30
2023-03-26T02:08:57.601Z,3.98
2023-03-26T02:19:01.887Z,3.74
2023-03-26T02:29:04.845Z,3.77
2023-03-26T02:39:14.386Z,3.67
2023-03-26T02:49:21.422Z,3.76
2023-03-26T02:59:24.443Z,3.62
2023-03-26T03:09:46.966Z,3.74
2023-03-26T03:20:18.615Z,3.45
2023-03-26T03:30:21.550Z,3.30
2023-03-26T03:40:46.167Z,3.19
2023-03-26T03:50:49.370Z,3.00
2023-03-26T04:01:04.924Z,2.88
2023-03-26T04:11:27.020Z,2.55
2023-03-26T04:21:49.772Z,2.95
2023-03-26T04:32:07.083Z,2.89
2023-03-26T04:42:11.374Z,2.74
2023-03-26T04:52:27.708Z,2.96
2023-03-26T05:02:33.000Z,2.65
2023-03-26T05:12:36.047Z,3.43
2023-03-26T05:22:44.027Z,3.73
2023-03-26T05:32:54.334Z,3.84
2023-03-26T05:43:02.328Z,4.23
2023-03-26T05:53:25.517Z,4.58
2023-03-26T06:03:47.260Z,5.40
2023-03-26T06:13:54.251Z,5.19
2023-03-26T06:23:57.118Z,5.82
2023-03-26T06:34:22.740Z,6.16
2023-03-26T06:44:25.695Z,6.76
2023-03-26T06:54:57.395Z,7.51
2023-03-26T07:05:38.868Z,8.16
2023-03-26T07:16:08.429Z,8.28
2023-03-26T07:26:50.898Z,8.12
2023-03-26T07:37:08.886Z,8.63
2023-03-26T07:47:45.240Z,8.37
2023-03-26T07:57:57.665Z,8.71
2023-03-26T08:08:25.527Z,9.07
2023-03-26T08:19:16.699Z,9.51
2023-03-26T08:29:42.220Z,10.16
2023-03-26T08:39:45.122Z,10.48
2023-03-26T08:50:21.899Z,10.59
2023-03-26T09:00:56.534Z,10.70
2023-03-26T09:11:32.377Z,11.35
2023-03-26T09:21:37.970Z,11.39
2023-03-26T09:32:17.825Z,12.11
2023-03-26T09:42:44.204Z,12.21
2023-03-26T09:53:08.203Z,12.49
2023-03-26T10:03:20.940Z,12.95
2023-03-26T10:13:33.800Z,12.92
2023-03-26T10:23:36.537Z,13.35
2023-03-26T10:34:29.163Z,13.81
2023-03-26T10:45:16.451Z,14.17
2023-03-26T10:55:29.382Z,14.06
2023-03-26T11:05:50.842Z,14.44
2023-03-26T11:16:00.749Z,15.55
2023-03-26T11:26:11.986Z,15.87
2023-03-26T11:36:23.923Z,14.97
2023-03-26T11:46:26.746Z,15.46
2023-03-26T11:57:04.389Z,15.26
2023-03-26T12:07:09.301Z,15.22
2023-03-26T12:17:31.181Z,17.09
2023-03-26T12:27:38.012Z,19.05
2023-03-26T12:37:44.673Z,17.67
2023-03-26T12:48:01.815Z,19.58
2023-03-26T12:58:33.835Z,17.28
2023-03-26T13:08:46.583Z,16.48
2023-03-26T13:19:01.712Z,16.60
2023-03-26T13:29:23.635Z,17.06
2023-03-26T13:39:50.219Z,17.29
2023-03-26T13:49:59.399Z,18.36
2023-03-26T14:00:16.866Z,17.34
2023-03-26T14:10:26.609Z,17.53
2023-03-26T14:21:03.952Z,17.97
2023-03-26T14:31:23.049Z,17.25
2023-03-26T14:41:41.055Z,16.91
2023-03-26T14:52:08.175Z,16.15
2023-03-26T15:02:23.325Z,15.87
2023-03-26T15:12:44.708Z,15.87
2023-03-26T15:23:22.245Z,15.76
2023-03-26T15:33:24.816Z,15.47
2023-03-26T15:44:01.586Z,15.27
2023-03-26T15:54:39.532Z,15.09
2023-03-26T16:05:24.298Z,14.97
2023-03-26T16:15:32.306Z,14.91
2023-03-26T16:25:54.229Z,14.56
2023-03-26T16:36:18.436Z,14.32
2023-03-26T16:46:33.317Z,14.14
2023-03-26T16:56:49.233Z,13.95
2023-03-26T17:07:01.777Z,13.80
2023-03-26T17:17:31.484Z,13.66
2023-03-26T17:27:38.344Z,13.65
2023-03-26T17:37:45.759Z,13.55
2023-03-26T17:47:52.858Z,13.65
2023-03-26T17:57:58.556Z,13.49
2023-03-26T18:08:19.681Z,13.13
2023-03-26T18:18:31.901Z,12.93
2023-03-26T18:28:41.207Z,12.51
2023-03-26T18:38:46.830Z,12.03
2023-03-26T18:48:49.842Z,11.61
2023-03-26T18:58:52.845Z,11.33
2023-03-26T19:08:56.557Z,10.55
2023-03-26T19:19:02.438Z,10.02
2023-03-26T19:29:05.800Z,9.65
2023-03-26T19:39:12.862Z,9.70
2023-03-26T19:49:31.334Z,9.61
2023-03-26T19:59:34.597Z,9.62
2023-03-26T20:09:37.829Z,9.51
2023-03-26T20:19:41.086Z,9.67
2023-03-26T20:29:45.956Z,9.44
2023-03-26T20:39:48.874Z,9.39
2023-03-26T20:49:52.534Z,9.33
2023-03-26T20:59:55.884Z,9.43
2023-03-26T21:10:02.040Z,9.15
2023-03-26T21:20:12.010Z,9.37
2023-03-26T21:30:16.877Z,9.35
2023-03-26T21:40:21.161Z,9.09
2023-03-26T21:50:24.397Z,9.07
2023-03-26T22:00:42.849Z,9.10
2023-03-26T22:10:46.064Z,8.99
2023-03-26T22:20:49.636Z,8.81
2023-03-26T22:30:52.344Z,8.44
2023-03-26T22:40:56.956Z,8.29
2023-03-26T22:51:05.686Z,8.09
2023-03-26T23:01:21.341Z,7.60
2023-03-26T23:11:24.233Z,7.65
2023-03-26T23:21:27.064Z,7.58
2023-03-26T23:31:31.897Z,7.46
2023-03-26T23:41:34.597Z,7.37
2023-03-26T23:51:37.820Z,7.48
